sensor_id;sensor_type;location;lat;lon;timestamp;P1;durP1;ratioP1;P2;durP2;ratioP2
25559;SDS011;13450;49.374;8.584;2023-06-22T00:01:03;3.80;;;1.70;;
25559;SDS011;13450;49.374;8.584;2023-06-22T00:03:31;4.85;;;2.10;;
25559;SDS011;13450;49.374;8.584;2023-06-22T00:05:56;4.00;;;1.60;;
25559;SDS011;13450;49.374;8.584;2023-06-22T00:08:22;5.45;;;2.53;;
25559;SDS011;13450;49.374;8.584;2023-06-22T00:10:47;4.70;;;2.00;;
25559;SDS011;13450;49.374;8.584;2023-06-22T00:13:13;4.35;;;2.20;;
25559;SDS011;13450;49.374;8.584;2023-06-22T00:15:41;4.00;;;2.03;;
25559;SDS011;13450;49.374;8.584;2023-06-22T00:18:07;5.10;;;2.03;;
25559;SDS011;13450;49.374;8.584;2023-06-22T00:20:33;4.32;;;1.83;;
25559;SDS011;13450;49.374;8.584;2023-06-22T00:23:05;2.95;;;1.38;;
25559;SDS011;13450;49.374;8.584;2023-06-22T00:25:34;4.68;;;1.90;;
25559;SDS011;13450;49.374;8.584;2023-06-22T00:28:01;3.00;;;1.45;;
25559;SDS011;13450;49.374;8.584;2023-06-22T00:30:27;3.58;;;1.67;;
25559;SDS011;13450;49.374;8.584;2023-06-22T00:32:52;4.18;;;1.85;;
25559;SDS011;13450;49.374;8.584;2023-06-22T00:35:17;4.55;;;2.10;;
25559;SDS011;13450;49.374;8.584;2023-06-22T00:37:43;3.40;;;1.77;;
25559;SDS011;13450;49.374;8.584;2023-06-22T00:40:11;3.72;;;1.70;;
25559;SDS011;13450;49.374;8.584;2023-06-22T00:42:40;4.65;;;2.22;;
25559;SDS011;13450;49.374;8.584;2023-06-22T00:45:06;5.28;;;2.50;;
25559;SDS011;13450;49.374;8.584;2023-06-22T00:47:32;4.75;;;2.25;;
25559;SDS011;13450;49.374;8.584;2023-06-22T00:49:59;5.10;;;2.65;;
25559;SDS011;13450;49.374;8.584;2023-06-22T00:52:25;6.97;;;2.83;;
25559;SDS011;13450;49.374;8.584;2023-06-22T00:54:54;4.65;;;2.63;;
25559;SDS011;13450;49.374;8.584;2023-06-22T00:57:20;6.35;;;3.17;;
25559;SDS011;13450;49.374;8.584;2023-06-22T00:59:52;6.68;;;2.65;;
25559;SDS011;13450;49.374;8.584;2023-06-22T01:02:18;7.70;;;3.28;;
25559;SDS011;13450;49.374;8.584;2023-06-22T01:04:46;7.68;;;3.25;;
25559;SDS011;13450;49.374;8.584;2023-06-22T01:07:21;8.80;;;3.53;;
25559;SDS011;13450;49.374;8.584;2023-06-22T01:10:07;6.45;;;2.97;;
25559;SDS011;13450;49.374;8.584;2023-06-22T01:12:40;8.75;;;3.78;;
25559;SDS011;13450;49.374;8.584;2023-06-22T01:15:44;7.55;;;3.40;;
25559;SDS011;13450;49.374;8.584;2023-06-22T01:18:04;6.38;;;3.05;;
25559;SDS011;13450;49.374;8.584;2023-06-22T01:20:34;8.93;;;3.53;;
25559;SDS011;13450;49.374;8.584;2023-06-22T01:28:43;6.40;;;3.67;;
25559;SDS011;13450;49.374;8.584;2023-06-22T01:31:13;7.35;;;3.53;;
25559;SDS011;13450;49.374;8.584;2023-06-22T01:33:42;5.88;;;3.08;;
25559;SDS011;13450;49.374;8.584;2023-06-22T01:36:10;9.07;;;3.80;;
25559;SDS011;13450;49.374;8.584;2023-06-22T01:38:36;5.78;;;2.60;;
25559;SDS011;13450;49.374;8.584;2023-06-22T01:41:02;6.70;;;3.30;;
25559;SDS011;13450;49.374;8.584;2023-06-22T01:43:31;6.82;;;3.25;;
25559;SDS011;13450;49.374;8.584;2023-06-22T01:45:59;6.95;;;2.70;;
25559;SDS011;13450;49.374;8.584;2023-06-22T01:48:26;6.07;;;3.22;;
25559;SDS011;13450;49.374;8.584;2023-06-22T01:50:52;6.00;;;2.70;;
25559;SDS011;13450;49.374;8.584;2023-06-22T01:53:20;8.38;;;3.30;;
25559;SDS011;13450;49.374;8.584;2023-06-22T01:55:49;4.80;;;2.15;;
25559;SDS011;13450;49.374;8.584;2023-06-22T01:58:15;5.65;;;2.60;;
25559;SDS011;13450;49.374;8.584;2023-06-22T02:00:46;7.50;;;3.00;;
25559;SDS011;13450;49.374;8.584;2023-06-22T02:03:18;5.45;;;2.72;;
25559;SDS011;13450;49.374;8.584;2023-06-22T02:05:49;7.30;;;3.20;;
25559;SDS011;13450;49.374;8.584;2023-06-22T02:08:20;7.47;;;3.58;;
25559;SDS011;13450;49.374;8.584;2023-06-22T02:10:50;8.35;;;3.33;;
25559;SDS011;13450;49.374;8.584;2023-06-22T02:13:17;5.10;;;2.58;;
25559;SDS011;13450;49.374;8.584;2023-06-22T02:15:43;4.70;;;2.28;;
25559;SDS011;13450;49.374;8.584;2023-06-22T02:18:10;7.00;;;3.40;;
25559;SDS011;13450;49.374;8.584;2023-06-22T02:20:38;5.63;;;3.03;;
25559;SDS011;13450;49.374;8.584;2023-06-22T02:23:05;7.20;;;4.00;;
25559;SDS011;13450;49.374;8.584;2023-06-22T02:25:31;7.22;;;3.58;;
25559;SDS011;13450;49.374;8.584;2023-06-22T02:27:57;8.18;;;3.42;;
25559;SDS011;13450;49.374;8.584;2023-06-22T02:30:22;7.80;;;3.75;;
25559;SDS011;13450;49.374;8.584;2023-06-22T02:32:47;7.20;;;3.42;;
25559;SDS011;13450;49.374;8.584;2023-06-22T02:35:12;6.63;;;3.45;;
25559;SDS011;13450;49.374;8.584;2023-06-22T02:37:38;10.23;;;3.70;;
25559;SDS011;13450;49.374;8.584;2023-06-22T02:40:08;10.47;;;4.53;;
25559;SDS011;13450;49.374;8.584;2023-06-22T02:42:37;9.57;;;3.97;;
25559;SDS011;13450;49.374;8.584;2023-06-22T02:45:04;6.75;;;3.60;;
25559;SDS011;13450;49.374;8.584;2023-06-22T02:47:30;5.70;;;2.75;;
25559;SDS011;13450;49.374;8.584;2023-06-22T02:49:55;7.63;;;3.28;;
25559;SDS011;13450;49.374;8.584;2023-06-22T02:52:21;6.82;;;3.78;;
25559;SDS011;13450;49.374;8.584;2023-06-22T02:54:48;8.68;;;4.15;;
25559;SDS011;13450;49.374;8.584;2023-06-22T02:57:14;8.10;;;4.65;;
25559;SDS011;13450;49.374;8.584;2023-06-22T02:59:40;8.95;;;3.78;;
25559;SDS011;13450;49.374;8.584;2023-06-22T03:02:06;7.53;;;4.30;;
25559;SDS011;13450;49.374;8.584;2023-06-22T03:04:32;8.85;;;3.65;;
25559;SDS011;13450;49.374;8.584;2023-06-22T03:06:57;7.57;;;3.65;;
25559;SDS011;13450;49.374;8.584;2023-06-22T03:09:26;7.05;;;3.83;;
25559;SDS011;13450;49.374;8.584;2023-06-22T03:11:52;8.95;;;4.13;;
25559;SDS011;13450;49.374;8.584;2023-06-22T03:14:20;7.47;;;3.75;;
25559;SDS011;13450;49.374;8.584;2023-06-22T03:16:46;6.90;;;3.72;;
25559;SDS011;13450;49.374;8.584;2023-06-22T03:19:11;7.85;;;3.67;;
25559;SDS011;13450;49.374;8.584;2023-06-22T03:21:37;8.60;;;4.03;;
25559;SDS011;13450;49.374;8.584;2023-06-22T03:26:32;7.95;;;3.15;;
25559;SDS011;13450;49.374;8.584;2023-06-22T03:28:57;7.57;;;3.47;;
25559;SDS011;13450;49.374;8.584;2023-06-22T03:31:23;5.10;;;2.70;;
25559;SDS011;13450;49.374;8.584;2023-06-22T03:33:53;7.05;;;3.42;;
25559;SDS011;13450;49.374;8.584;2023-06-22T03:36:21;8.07;;;3.35;;
25559;SDS011;13450;49.374;8.584;2023-06-22T03:38:47;7.93;;;3.65;;
25559;SDS011;13450;49.374;8.584;2023-06-22T03:41:15;5.03;;;2.13;;
25559;SDS011;13450;49.374;8.584;2023-06-22T03:43:43;7.63;;;3.55;;
25559;SDS011;13450;49.374;8.584;2023-06-22T03:46:09;5.35;;;2.78;;
25559;SDS011;13450;49.374;8.584;2023-06-22T03:48:34;5.18;;;2.55;;
25559;SDS011;13450;49.374;8.584;2023-06-22T03:51:00;7.68;;;3.70;;
25559;SDS011;13450;49.374;8.584;2023-06-22T03:53:26;4.95;;;2.60;;
25559;SDS011;13450;49.374;8.584;2023-06-22T03:55:57;4.85;;;2.45;;
25559;SDS011;13450;49.374;8.584;2023-06-22T03:58:23;5.28;;;2.17;;
25559;SDS011;13450;49.374;8.584;2023-06-22T04:00:51;6.05;;;3.13;;
25559;SDS011;13450;49.374;8.584;2023-06-22T04:03:17;7.05;;;3.85;;
25559;SDS011;13450;49.374;8.584;2023-06-22T04:05:46;7.40;;;3.65;;
25559;SDS011;13450;49.374;8.584;2023-06-22T04:08:12;4.85;;;2.60;;
25559;SDS011;13450;49.374;8.584;2023-06-22T04:10:38;7.07;;;3.42;;
25559;SDS011;13450;49.374;8.584;2023-06-22T04:13:04;8.93;;;3.50;;
25559;SDS011;13450;49.374;8.584;2023-06-22T04:15:29;9.02;;;4.03;;
25559;SDS011;13450;49.374;8.584;2023-06-22T04:17:55;6.47;;;3.65;;
25559;SDS011;13450;49.374;8.584;2023-06-22T04:20:21;7.38;;;2.95;;
25559;SDS011;13450;49.374;8.584;2023-06-22T04:22:50;4.65;;;2.17;;
25559;SDS011;13450;49.374;8.584;2023-06-22T04:25:16;6.30;;;3.42;;
25559;SDS011;13450;49.374;8.584;2023-06-22T04:27:42;7.95;;;3.67;;
25559;SDS011;13450;49.374;8.584;2023-06-22T04:30:07;7.22;;;3.28;;
25559;SDS011;13450;49.374;8.584;2023-06-22T04:32:34;9.05;;;4.07;;
25559;SDS011;13450;49.374;8.584;2023-06-22T04:35:01;6.32;;;2.88;;
25559;SDS011;13450;49.374;8.584;2023-06-22T04:37:27;4.90;;;2.67;;
25559;SDS011;13450;49.374;8.584;2023-06-22T04:39:52;8.98;;;3.40;;
25559;SDS011;13450;49.374;8.584;2023-06-22T04:42:18;9.95;;;4.57;;
25559;SDS011;13450;49.374;8.584;2023-06-22T04:44:43;8.55;;;3.40;;
25559;SDS011;13450;49.374;8.584;2023-06-22T04:47:08;7.35;;;3.25;;
25559;SDS011;13450;49.374;8.584;2023-06-22T04:49:34;8.50;;;4.60;;
25559;SDS011;13450;49.374;8.584;2023-06-22T04:52:06;9.23;;;3.90;;
25559;SDS011;13450;49.374;8.584;2023-06-22T04:54:32;7.80;;;4.53;;
25559;SDS011;13450;49.374;8.584;2023-06-22T04:57:02;7.82;;;3.58;;
25559;SDS011;13450;49.374;8.584;2023-06-22T04:59:29;7.57;;;3.25;;
25559;SDS011;13450;49.374;8.584;2023-06-22T05:01:58;5.95;;;3.45;;
25559;SDS011;13450;49.374;8.584;2023-06-22T05:04:25;7.85;;;4.07;;
25559;SDS011;13450;49.374;8.584;2023-06-22T05:06:53;6.97;;;3.05;;
25559;SDS011;13450;49.374;8.584;2023-06-22T05:09:19;6.13;;;3.00;;
25559;SDS011;13450;49.374;8.584;2023-06-22T05:11:45;5.32;;;2.60;;
25559;SDS011;13450;49.374;8.584;2023-06-22T05:14:11;4.90;;;2.53;;
25559;SDS011;13450;49.374;8.584;2023-06-22T05:16:37;6.15;;;2.75;;
25559;SDS011;13450;49.374;8.584;2023-06-22T05:19:03;5.30;;;2.38;;
25559;SDS011;13450;49.374;8.584;2023-06-22T05:21:28;5.10;;;2.10;;
25559;SDS011;13450;49.374;8.584;2023-06-22T05:23:55;6.05;;;2.72;;
25559;SDS011;13450;49.374;8.584;2023-06-22T05:26:24;5.05;;;2.78;;
25559;SDS011;13450;49.374;8.584;2023-06-22T05:28:51;6.28;;;2.53;;
25559;SDS011;13450;49.374;8.584;2023-06-22T05:31:19;7.95;;;3.13;;
25559;SDS011;13450;49.374;8.584;2023-06-22T05:33:51;4.90;;;2.70;;
25559;SDS011;13450;49.374;8.584;2023-06-22T05:36:21;4.78;;;2.55;;
25559;SDS011;13450;49.374;8.584;2023-06-22T05:38:49;7.00;;;3.10;;
25559;SDS011;13450;49.374;8.584;2023-06-22T05:41:15;7.70;;;2.33;;
25559;SDS011;13450;49.374;8.584;2023-06-22T05:43:40;5.13;;;2.47;;
25559;SDS011;13450;49.374;8.584;2023-06-22T05:46:06;4.45;;;2.28;;
25559;SDS011;13450;49.374;8.584;2023-06-22T05:48:31;5.70;;;2.42;;
25559;SDS011;13450;49.374;8.584;2023-06-22T05:50:57;4.22;;;2.28;;
25559;SDS011;13450;49.374;8.584;2023-06-22T05:53:23;4.60;;;2.10;;
25559;SDS011;13450;49.374;8.584;2023-06-22T05:55:48;4.63;;;2.50;;
25559;SDS011;13450;49.374;8.584;2023-06-22T05:58:16;4.88;;;2.10;;
25559;SDS011;13450;49.374;8.584;2023-06-22T06:00:41;4.85;;;2.58;;
25559;SDS011;13450;49.374;8.584;2023-06-22T06:03:16;5.07;;;2.63;;
25559;SDS011;13450;49.374;8.584;2023-06-22T06:05:42;5.32;;;2.60;;
25559;SDS011;13450;49.374;8.584;2023-06-22T06:08:08;5.82;;;2.35;;
25559;SDS011;13450;49.374;8.584;2023-06-22T06:10:33;4.78;;;2.60;;
25559;SDS011;13450;49.374;8.584;2023-06-22T06:13:00;4.32;;;2.47;;
25559;SDS011;13450;49.374;8.584;2023-06-22T06:15:29;4.65;;;2.55;;
25559;SDS011;13450;49.374;8.584;2023-06-22T06:17:55;5.05;;;2.60;;
25559;SDS011;13450;49.374;8.584;2023-06-22T06:20:22;3.80;;;2.00;;
25559;SDS011;13450;49.374;8.584;2023-06-22T06:22:48;4.07;;;2.20;;
25559;SDS011;13450;49.374;8.584;2023-06-22T06:25:14;5.57;;;2.15;;
25559;SDS011;13450;49.374;8.584;2023-06-22T06:27:48;4.40;;;2.15;;
25559;SDS011;13450;49.374;8.584;2023-06-22T06:30:17;4.70;;;2.28;;
25559;SDS011;13450;49.374;8.584;2023-06-22T06:32:43;6.15;;;2.30;;
25559;SDS011;13450;49.374;8.584;2023-06-22T06:35:10;3.95;;;2.13;;
25559;SDS011;13450;49.374;8.584;2023-06-22T06:37:37;4.38;;;2.30;;
25559;SDS011;13450;49.374;8.584;2023-06-22T06:40:07;5.03;;;2.37;;
25559;SDS011;13450;49.374;8.584;2023-06-22T06:42:35;5.70;;;2.70;;
25559;SDS011;13450;49.374;8.584;2023-06-22T06:45:20;6.03;;;2.50;;
25559;SDS011;13450;49.374;8.584;2023-06-22T06:47:47;4.82;;;2.30;;
25559;SDS011;13450;49.374;8.584;2023-06-22T06:50:13;6.30;;;3.17;;
25559;SDS011;13450;49.374;8.584;2023-06-22T06:52:38;7.43;;;2.70;;
25559;SDS011;13450;49.374;8.584;2023-06-22T06:55:06;6.07;;;2.75;;
25559;SDS011;13450;49.374;8.584;2023-06-22T06:57:39;4.97;;;2.67;;
25559;SDS011;13450;49.374;8.584;2023-06-22T07:00:06;6.43;;;3.05;;
25559;SDS011;13450;49.374;8.584;2023-06-22T07:02:35;7.30;;;2.88;;
25559;SDS011;13450;49.374;8.584;2023-06-22T07:05:03;5.40;;;2.67;;
25559;SDS011;13450;49.374;8.584;2023-06-22T07:07:28;4.55;;;2.40;;
25559;SDS011;13450;49.374;8.584;2023-06-22T07:09:54;5.07;;;2.22;;
25559;SDS011;13450;49.374;8.584;2023-06-22T07:12:19;6.43;;;2.80;;
25559;SDS011;13450;49.374;8.584;2023-06-22T07:14:44;5.00;;;2.40;;
25559;SDS011;13450;49.374;8.584;2023-06-22T07:17:09;5.55;;;2.58;;
25559;SDS011;13450;49.374;8.584;2023-06-22T07:19:35;7.00;;;2.92;;
25559;SDS011;13450;49.374;8.584;2023-06-22T07:22:02;5.63;;;2.95;;
25559;SDS011;13450;49.374;8.584;2023-06-22T07:24:28;6.07;;;2.55;;
25559;SDS011;13450;49.374;8.584;2023-06-22T07:26:57;5.90;;;2.30;;
25559;SDS011;13450;49.374;8.584;2023-06-22T07:29:24;4.63;;;2.75;;
25559;SDS011;13450;49.374;8.584;2023-06-22T07:31:49;4.60;;;2.10;;
25559;SDS011;13450;49.374;8.584;2023-06-22T07:34:16;5.28;;;2.47;;
25559;SDS011;13450;49.374;8.584;2023-06-22T07:36:42;5.78;;;2.90;;
25559;SDS011;13450;49.374;8.584;2023-06-22T07:39:08;5.80;;;2.53;;
25559;SDS011;13450;49.374;8.584;2023-06-22T07:41:33;5.40;;;2.85;;
25559;SDS011;13450;49.374;8.584;2023-06-22T07:43:58;7.50;;;3.40;;
25559;SDS011;13450;49.374;8.584;2023-06-22T07:46:26;7.60;;;2.90;;
25559;SDS011;13450;49.374;8.584;2023-06-22T07:48:55;5.18;;;2.78;;
25559;SDS011;13450;49.374;8.584;2023-06-22T07:51:21;9.18;;;4.32;;
25559;SDS011;13450;49.374;8.584;2023-06-22T07:53:46;5.43;;;3.10;;
25559;SDS011;13450;49.374;8.584;2023-06-22T07:56:11;4.63;;;2.60;;
25559;SDS011;13450;49.374;8.584;2023-06-22T07:58:37;7.68;;;2.60;;
25559;SDS011;13450;49.374;8.584;2023-06-22T08:01:02;4.68;;;2.58;;
25559;SDS011;13450;49.374;8.584;2023-06-22T08:03:28;5.40;;;2.50;;
25559;SDS011;13450;49.374;8.584;2023-06-22T08:05:56;5.10;;;2.60;;
25559;SDS011;13450;49.374;8.584;2023-06-22T08:08:23;5.87;;;2.40;;
25559;SDS011;13450;49.374;8.584;2023-06-22T08:10:49;5.20;;;3.03;;
25559;SDS011;13450;49.374;8.584;2023-06-22T08:13:14;5.68;;;2.67;;
25559;SDS011;13450;49.374;8.584;2023-06-22T08:15:40;7.25;;;2.75;;
25559;SDS011;13450;49.374;8.584;2023-06-22T08:18:05;4.90;;;2.50;;
25559;SDS011;13450;49.374;8.584;2023-06-22T08:20:30;4.68;;;2.33;;
25559;SDS011;13450;49.374;8.584;2023-06-22T08:22:56;5.50;;;3.05;;
25559;SDS011;13450;49.374;8.584;2023-06-22T08:25:23;6.70;;;2.90;;
25559;SDS011;13450;49.374;8.584;2023-06-22T08:27:48;5.22;;;2.70;;
25559;SDS011;13450;49.374;8.584;2023-06-22T08:30:13;4.82;;;2.55;;
25559;SDS011;13450;49.374;8.584;2023-06-22T08:35:07;5.07;;;2.90;;
25559;SDS011;13450;49.374;8.584;2023-06-22T08:37:33;6.05;;;2.25;;
25559;SDS011;13450;49.374;8.584;2023-06-22T08:40:00;5.75;;;2.40;;
25559;SDS011;13450;49.374;8.584;2023-06-22T08:42:29;5.03;;;2.45;;
25559;SDS011;13450;49.374;8.584;2023-06-22T08:44:55;4.25;;;2.30;;
25559;SDS011;13450;49.374;8.584;2023-06-22T08:47:23;4.70;;;2.10;;
25559;SDS011;13450;49.374;8.584;2023-06-22T08:49:48;5.22;;;2.63;;
25559;SDS011;13450;49.374;8.584;2023-06-22T08:52:14;4.15;;;2.30;;
25559;SDS011;13450;49.374;8.584;2023-06-22T08:54:40;6.03;;;2.45;;
25559;SDS011;13450;49.374;8.584;2023-06-22T08:57:05;7.28;;;2.33;;
25559;SDS011;13450;49.374;8.584;2023-06-22T08:59:31;6.65;;;2.78;;
25559;SDS011;13450;49.374;8.584;2023-06-22T09:01:56;4.05;;;2.40;;
25559;SDS011;13450;49.374;8.584;2023-06-22T09:04:22;8.45;;;3.15;;
25559;SDS011;13450;49.374;8.584;2023-06-22T09:06:47;5.22;;;2.60;;
25559;SDS011;13450;49.374;8.584;2023-06-22T09:09:17;6.65;;;3.10;;
25559;SDS011;13450;49.374;8.584;2023-06-22T09:11:42;9.07;;;2.65;;
25559;SDS011;13450;49.374;8.584;2023-06-22T09:14:08;6.20;;;2.60;;
25559;SDS011;13450;49.374;8.584;2023-06-22T09:16:34;5.20;;;2.33;;
25559;SDS011;13450;49.374;8.584;2023-06-22T09:18:59;6.07;;;2.70;;
25559;SDS011;13450;49.374;8.584;2023-06-22T09:21:24;5.07;;;2.30;;
25559;SDS011;13450;49.374;8.584;2023-06-22T09:23:50;6.32;;;2.72;;
25559;SDS011;13450;49.374;8.584;2023-06-22T09:26:16;5.20;;;2.95;;
25559;SDS011;13450;49.374;8.584;2023-06-22T09:28:42;5.28;;;2.53;;
25559;SDS011;13450;49.374;8.584;2023-06-22T09:31:08;4.95;;;2.95;;
25559;SDS011;13450;49.374;8.584;2023-06-22T09:33:33;5.35;;;2.63;;
25559;SDS011;13450;49.374;8.584;2023-06-22T09:35:58;5.18;;;2.20;;
25559;SDS011;13450;49.374;8.584;2023-06-22T09:38:24;4.85;;;2.35;;
25559;SDS011;13450;49.374;8.584;2023-06-22T09:40:49;7.55;;;2.72;;
25559;SDS011;13450;49.374;8.584;2023-06-22T09:43:16;6.25;;;2.75;;
25559;SDS011;13450;49.374;8.584;2023-06-22T09:45:44;5.38;;;2.67;;
25559;SDS011;13450;49.374;8.584;2023-06-22T09:48:09;5.88;;;2.78;;
25559;SDS011;13450;49.374;8.584;2023-06-22T09:50:35;9.73;;;3.00;;
25559;SDS011;13450;49.374;8.584;2023-06-22T09:53:01;5.88;;;2.47;;
25559;SDS011;13450;49.374;8.584;2023-06-22T09:55:26;5.22;;;2.47;;
25559;SDS011;13450;49.374;8.584;2023-06-22T09:57:52;4.85;;;2.47;;
25559;SDS011;13450;49.374;8.584;2023-06-22T10:00:17;5.47;;;3.00;;
25559;SDS011;13450;49.374;8.584;2023-06-22T10:02:44;7.78;;;2.78;;
25559;SDS011;13450;49.374;8.584;2023-06-22T10:05:11;7.22;;;2.88;;
25559;SDS011;13450;49.374;8.584;2023-06-22T10:07:36;6.90;;;2.60;;
25559;SDS011;13450;49.374;8.584;2023-06-22T10:10:07;5.65;;;2.80;;
25559;SDS011;13450;49.374;8.584;2023-06-22T10:12:35;8.05;;;2.75;;
25559;SDS011;13450;49.374;8.584;2023-06-22T10:15:01;8.02;;;2.63;;
25559;SDS011;13450;49.374;8.584;2023-06-22T10:17:28;5.75;;;2.97;;
25559;SDS011;13450;49.374;8.584;2023-06-22T10:19:53;6.35;;;2.47;;
25559;SDS011;13450;49.374;8.584;2023-06-22T10:22:19;6.00;;;2.70;;
25559;SDS011;13450;49.374;8.584;2023-06-22T10:24:46;5.63;;;2.63;;
25559;SDS011;13450;49.374;8.584;2023-06-22T10:27:14;5.70;;;2.83;;
25559;SDS011;13450;49.374;8.584;2023-06-22T10:29:39;6.22;;;2.75;;
25559;SDS011;13450;49.374;8.584;2023-06-22T10:32:05;4.25;;;2.58;;
25559;SDS011;13450;49.374;8.584;2023-06-22T10:34:30;4.80;;;2.13;;
25559;SDS011;13450;49.374;8.584;2023-06-22T10:36:56;6.35;;;2.58;;
25559;SDS011;13450;49.374;8.584;2023-06-22T10:39:21;5.63;;;2.63;;
25559;SDS011;13450;49.374;8.584;2023-06-22T10:41:46;5.75;;;2.60;;
25559;SDS011;13450;49.374;8.584;2023-06-22T10:44:11;6.80;;;2.67;;
25559;SDS011;13450;49.374;8.584;2023-06-22T10:46:39;5.35;;;2.30;;
25559;SDS011;13450;49.374;8.584;2023-06-22T10:49:04;5.75;;;2.20;;
25559;SDS011;13450;49.374;8.584;2023-06-22T10:51:30;6.43;;;2.55;;
25559;SDS011;13450;49.374;8.584;2023-06-22T10:53:56;4.82;;;2.53;;
25559;SDS011;13450;49.374;8.584;2023-06-22T10:56:21;6.20;;;2.80;;
25559;SDS011;13450;49.374;8.584;2023-06-22T10:58:47;5.97;;;2.75;;
25559;SDS011;13450;49.374;8.584;2023-06-22T11:01:12;5.82;;;2.10;;
25559;SDS011;13450;49.374;8.584;2023-06-22T11:03:39;7.00;;;2.50;;
25559;SDS011;13450;49.374;8.584;2023-06-22T11:06:07;4.10;;;2.28;;
25559;SDS011;13450;49.374;8.584;2023-06-22T11:08:32;6.40;;;2.53;;
25559;SDS011;13450;49.374;8.584;2023-06-22T11:10:57;7.40;;;2.90;;
25559;SDS011;13450;49.374;8.584;2023-06-22T11:13:23;6.47;;;2.42;;
25559;SDS011;13450;49.374;8.584;2023-06-22T11:15:50;4.97;;;2.38;;
25559;SDS011;13450;49.374;8.584;2023-06-22T11:18:15;6.68;;;2.53;;
25559;SDS011;13450;49.374;8.584;2023-06-22T11:20:45;6.55;;;2.58;;
25559;SDS011;13450;49.374;8.584;2023-06-22T11:23:12;5.57;;;2.42;;
25559;SDS011;13450;49.374;8.584;2023-06-22T11:25:37;5.75;;;2.53;;
25559;SDS011;13450;49.374;8.584;2023-06-22T11:28:03;6.57;;;2.47;;
25559;SDS011;13450;49.374;8.584;2023-06-22T11:30:29;8.07;;;2.55;;
25559;SDS011;13450;49.374;8.584;2023-06-22T11:32:56;8.85;;;2.60;;
25559;SDS011;13450;49.374;8.584;2023-06-22T11:35:21;6.32;;;2.53;;
25559;SDS011;13450;49.374;8.584;2023-06-22T11:37:47;6.38;;;2.70;;
25559;SDS011;13450;49.374;8.584;2023-06-22T11:40:12;6.60;;;2.35;;
25559;SDS011;13450;49.374;8.584;2023-06-22T11:42:37;5.63;;;2.50;;
25559;SDS011;13450;49.374;8.584;2023-06-22T11:45:04;5.20;;;2.35;;
25559;SDS011;13450;49.374;8.584;2023-06-22T11:47:32;6.28;;;2.22;;
25559;SDS011;13450;49.374;8.584;2023-06-22T11:50:00;5.13;;;2.50;;
25559;SDS011;13450;49.374;8.584;2023-06-22T11:52:25;7.57;;;2.22;;
25559;SDS011;13450;49.374;8.584;2023-06-22T11:54:52;6.53;;;2.30;;
25559;SDS011;13450;49.374;8.584;2023-06-22T11:57:17;5.95;;;2.50;;
25559;SDS011;13450;49.374;8.584;2023-06-22T11:59:42;6.20;;;2.45;;
25559;SDS011;13450;49.374;8.584;2023-06-22T12:02:10;4.43;;;2.47;;
25559;SDS011;13450;49.374;8.584;2023-06-22T12:04:37;7.47;;;2.40;;
25559;SDS011;13450;49.374;8.584;2023-06-22T12:07:03;7.65;;;2.28;;
25559;SDS011;13450;49.374;8.584;2023-06-22T12:09:28;4.65;;;2.30;;
25559;SDS011;13450;49.374;8.584;2023-06-22T12:11:54;8.43;;;2.72;;
25559;SDS011;13450;49.374;8.584;2023-06-22T12:14:19;8.90;;;2.72;;
25559;SDS011;13450;49.374;8.584;2023-06-22T12:16:44;8.63;;;2.53;;
25559;SDS011;13450;49.374;8.584;2023-06-22T12:19:10;4.38;;;2.35;;
25559;SDS011;13450;49.374;8.584;2023-06-22T12:21:36;5.15;;;2.78;;
25559;SDS011;13450;49.374;8.584;2023-06-22T12:24:02;4.53;;;2.28;;
25559;SDS011;13450;49.374;8.584;2023-06-22T12:26:27;4.75;;;2.47;;
25559;SDS011;13450;49.374;8.584;2023-06-22T12:28:55;7.85;;;2.50;;
25559;SDS011;13450;49.374;8.584;2023-06-22T12:31:21;7.60;;;2.42;;
25559;SDS011;13450;49.374;8.584;2023-06-22T12:33:46;5.80;;;2.60;;
25559;SDS011;13450;49.374;8.584;2023-06-22T12:36:11;6.47;;;2.57;;
25559;SDS011;13450;49.374;8.584;2023-06-22T12:38:36;6.43;;;2.67;;
25559;SDS011;13450;49.374;8.584;2023-06-22T12:41:02;4.72;;;2.30;;
25559;SDS011;13450;49.374;8.584;2023-06-22T12:43:27;6.82;;;2.30;;
25559;SDS011;13450;49.374;8.584;2023-06-22T12:45:52;6.57;;;2.30;;
25559;SDS011;13450;49.374;8.584;2023-06-22T12:48:18;7.38;;;2.55;;
25559;SDS011;13450;49.374;8.584;2023-06-22T12:50:44;4.65;;;2.13;;
25559;SDS011;13450;49.374;8.584;2023-06-22T12:53:09;5.78;;;2.50;;
25559;SDS011;13450;49.374;8.584;2023-06-22T12:55:34;5.47;;;2.67;;
25559;SDS011;13450;49.374;8.584;2023-06-22T12:57:59;4.97;;;2.35;;
25559;SDS011;13450;49.374;8.584;2023-06-22T13:00:25;7.85;;;2.70;;
25559;SDS011;13450;49.374;8.584;2023-06-22T13:02:50;5.75;;;2.60;;
25559;SDS011;13450;49.374;8.584;2023-06-22T13:05:15;5.78;;;2.63;;
25559;SDS011;13450;49.374;8.584;2023-06-22T13:07:41;5.75;;;2.40;;
25559;SDS011;13450;49.374;8.584;2023-06-22T13:10:07;6.20;;;2.30;;
25559;SDS011;13450;49.374;8.584;2023-06-22T13:12:33;8.23;;;2.55;;
25559;SDS011;13450;49.374;8.584;2023-06-22T13:15:01;6.00;;;3.00;;
25559;SDS011;13450;49.374;8.584;2023-06-22T13:17:28;6.00;;;2.55;;
25559;SDS011;13450;49.374;8.584;2023-06-22T13:19:53;5.82;;;2.58;;
25559;SDS011;13450;49.374;8.584;2023-06-22T13:25:04;8.40;;;2.50;;
25559;SDS011;13450;49.374;8.584;2023-06-22T13:27:36;5.20;;;2.40;;
25559;SDS011;13450;49.374;8.584;2023-06-22T13:30:04;7.00;;;2.38;;
25559;SDS011;13450;49.374;8.584;2023-06-22T13:32:30;9.05;;;2.78;;
25559;SDS011;13450;49.374;8.584;2023-06-22T13:34:55;9.13;;;2.80;;
25559;SDS011;13450;49.374;8.584;2023-06-22T13:37:20;7.85;;;2.70;;
25559;SDS011;13450;49.374;8.584;2023-06-22T13:39:46;6.55;;;2.33;;
25559;SDS011;13450;49.374;8.584;2023-06-22T13:42:11;4.57;;;2.45;;
25559;SDS011;13450;49.374;8.584;2023-06-22T13:44:37;7.05;;;2.63;;
25559;SDS011;13450;49.374;8.584;2023-06-22T13:47:04;10.38;;;2.92;;
25559;SDS011;13450;49.374;8.584;2023-06-22T13:49:30;4.43;;;2.30;;
25559;SDS011;13450;49.374;8.584;2023-06-22T13:51:56;5.18;;;2.38;;
25559;SDS011;13450;49.374;8.584;2023-06-22T13:54:21;4.57;;;2.33;;
25559;SDS011;13450;49.374;8.584;2023-06-22T13:56:46;5.97;;;2.63;;
25559;SDS011;13450;49.374;8.584;2023-06-22T13:59:12;8.77;;;2.90;;
25559;SDS011;13450;49.374;8.584;2023-06-22T14:01:37;7.78;;;2.72;;
25559;SDS011;13450;49.374;8.584;2023-06-22T14:06:30;7.07;;;2.87;;
25559;SDS011;13450;49.374;8.584;2023-06-22T14:08:55;8.63;;;2.55;;
25559;SDS011;13450;49.374;8.584;2023-06-22T14:11:21;11.23;;;3.22;;
25559;SDS011;13450;49.374;8.584;2023-06-22T14:13:46;7.75;;;2.50;;
25559;SDS011;13450;49.374;8.584;2023-06-22T14:16:13;7.45;;;2.60;;
25559;SDS011;13450;49.374;8.584;2023-06-22T14:18:39;7.03;;;2.97;;
25559;SDS011;13450;49.374;8.584;2023-06-22T14:21:04;7.18;;;2.80;;
25559;SDS011;13450;49.374;8.584;2023-06-22T14:23:29;6.28;;;2.72;;
25559;SDS011;13450;49.374;8.584;2023-06-22T14:25:55;6.38;;;2.40;;
25559;SDS011;13450;49.374;8.584;2023-06-22T14:28:20;8.90;;;2.90;;
25559;SDS011;13450;49.374;8.584;2023-06-22T14:30:47;7.70;;;2.63;;
25559;SDS011;13450;49.374;8.584;2023-06-22T14:33:13;8.43;;;2.85;;
25559;SDS011;13450;49.374;8.584;2023-06-22T14:35:41;9.38;;;2.90;;
25559;SDS011;13450;49.374;8.584;2023-06-22T14:38:06;7.57;;;3.22;;
25559;SDS011;13450;49.374;8.584;2023-06-22T14:40:31;7.68;;;3.17;;
25559;SDS011;13450;49.374;8.584;2023-06-22T14:42:57;9.45;;;3.15;;
25559;SDS011;13450;49.374;8.584;2023-06-22T14:45:22;6.20;;;2.90;;
25559;SDS011;13450;49.374;8.584;2023-06-22T14:47:48;6.35;;;3.08;;
25559;SDS011;13450;49.374;8.584;2023-06-22T14:50:14;7.20;;;3.13;;
25559;SDS011;13450;49.374;8.584;2023-06-22T14:52:39;5.30;;;2.70;;
25559;SDS011;13450;49.374;8.584;2023-06-22T14:55:05;6.82;;;2.75;;
25559;SDS011;13450;49.374;8.584;2023-06-22T14:57:30;5.43;;;2.83;;
25559;SDS011;13450;49.374;8.584;2023-06-22T14:59:56;5.80;;;2.72;;